Time;durP1;ratioP1;P1;durP2;ratioP2;P2;SDS_P1;SDS_P2;PMS_P1;PMS_P2;Temp;Humidity;BMP_temperature;BMP_pressure;BME280_temperature;BME280_humidity;BME280_pressure;Samples;Min_cycle;Max_cycle;Signal;HPM_P1;HPM_P2
2021/05/14 00:01:25;;;;;;;89.03;17.33;;;;;;;;;;5074841;28;20545;-66
2021/05/14 00:03:52;;;;;;;64.18;16.17;;;;;;;;;;5074286;28;20417;-66
2021/05/14 00:06:17;;;;;;;79.47;18.15;;;;;;;;;;5074591;28;20040;-66
2021/05/14 00:08:42;;;;;;;280.65;27.48;;;;;;;;;;5073160;28;20418;-65
2021/05/14 00:11:08;;;;;;;160.82;23.17;;;;;;;;;;5052509;28;20025;-66
2021/05/14 00:13:33;;;;;;;218.60;24.38;;;;;;;;;;5053173;28;20457;-65
2021/05/14 00:15:58;;;;;;;71.55;16.25;;;;;;;;;;5053109;28;20095;-66
2021/05/14 00:18:24;;;;;;;136.05;21.50;;;;;;;;;;5053375;28;20020;-66
2021/05/14 00:20:50;;;;;;;49.20;15.27;;;;;;;;;;5053489;28;20033;-66
2021/05/14 00:23:15;;;;;;;72.03;16.73;;;;;;;;;;5052105;28;20024;-66
2021/05/14 00:25:40;;;;;;;41.47;14.55;;;;;;;;;;5053640;28;20458;-66
2021/05/14 00:28:06;;;;;;;90.55;17.73;;;;;;;;;;5054030;28;20107;-66
2021/05/14 00:30:31;;;;;;;92.43;18.52;;;;;;;;;;5054529;28;20049;-66
2021/05/14 00:32:57;;;;;;;65.50;17.30;;;;;;;;;;5054095;28;20024;-66
2021/05/14 00:35:22;;;;;;;122.43;20.85;;;;;;;;;;5053749;28;20044;-66
2021/05/14 00:37:47;;;;;;;50.45;16.17;;;;;;;;;;5053960;28;20017;-66
2021/05/14 00:40:13;;;;;;;57.97;16.92;;;;;;;;;;5053498;28;20047;-66
2021/05/14 00:42:38;;;;;;;86.60;18.40;;;;;;;;;;5054027;28;20059;-66
2021/05/14 00:45:05;;;;;;;59.97;17.15;;;;;;;;;;5053755;28;20035;-66
2021/05/14 00:47:30;;;;;;;67.85;17.50;;;;;;;;;;5053831;28;20057;-66
2021/05/14 00:49:55;;;;;;;52.63;15.13;;;;;;;;;;5054013;28;20068;-66
2021/05/14 00:52:21;;;;;;;50.38;15.52;;;;;;;;;;5052937;28;20049;-66
2021/05/14 00:54:47;;;;;;;44.55;14.55;;;;;;;;;;5053752;28;20048;-66
2021/05/14 00:57:15;;;;;;;55.88;15.60;;;;;;;;;;5051657;28;20390;-66
2021/05/14 00:59:40;;;;;;;86.28;18.50;;;;;;;;;;5053550;28;20048;-66
2021/05/14 01:02:06;;;;;;;56.47;15.35;;;;;;;;;;5053678;28;20025;-66
2021/05/14 01:04:32;;;;;;;48.20;16.63;;;;;;;;;;5053238;28;20060;-66
2021/05/14 01:06:57;;;;;;;110.72;20.70;;;;;;;;;;5053148;28;20040;-66
2021/05/14 01:09:23;;;;;;;91.32;18.42;;;;;;;;;;5053360;28;20038;-66
2021/05/14 01:11:48;;;;;;;68.63;18.48;;;;;;;;;;5053540;28;20037;-66
2021/05/14 01:14:13;;;;;;;56.40;17.80;;;;;;;;;;5053178;28;20027;-66
2021/05/14 01:16:39;;;;;;;67.53;17.05;;;;;;;;;;5053144;28;20025;-66
2021/05/14 01:19:04;;;;;;;262.58;25.98;;;;;;;;;;5053142;28;20039;-66
2021/05/14 01:21:30;;;;;;;306.85;27.23;;;;;;;;;;5053100;28;20519;-66
2021/05/14 01:23:56;;;;;;;70.25;18.02;;;;;;;;;;5052817;28;20024;-66
2021/05/14 01:26:24;;;;;;;38.00;14.13;;;;;;;;;;5053144;28;20044;-66
2021/05/14 01:28:50;;;;;;;98.95;19.15;;;;;;;;;;5053033;28;20104;-66
2021/05/14 01:31:15;;;;;;;132.20;21.52;;;;;;;;;;5053213;28;20418;-66
2021/05/14 01:33:40;;;;;;;121.55;20.35;;;;;;;;;;5052765;28;20037;-66
2021/05/14 01:36:07;;;;;;;72.72;18.15;;;;;;;;;;5051897;28;20116;-66
2021/05/14 01:38:32;;;;;;;51.30;15.98;;;;;;;;;;5051822;28;20376;-66
2021/05/14 01:40:58;;;;;;;70.88;17.73;;;;;;;;;;5052529;28;20056;-66
2021/05/14 01:43:23;;;;;;;62.42;16.35;;;;;;;;;;5052613;28;20024;-66
2021/05/14 01:45:48;;;;;;;90.50;18.70;;;;;;;;;;5053005;28;20513;-66
2021/05/14 01:48:14;;;;;;;169.85;22.02;;;;;;;;;;5052452;28;20041;-66
2021/05/14 01:50:39;;;;;;;46.65;14.68;;;;;;;;;;5053015;28;20120;-66
2021/05/14 01:53:05;;;;;;;53.90;17.48;;;;;;;;;;5052774;28;20025;-66
2021/05/14 01:55:30;;;;;;;59.80;17.88;;;;;;;;;;5052942;28;20477;-66
2021/05/14 01:57:55;;;;;;;54.00;16.45;;;;;;;;;;5052624;28;20119;-66
2021/05/14 02:00:21;;;;;;;119.97;20.70;;;;;;;;;;5052611;28;20127;-66
2021/05/14 02:02:46;;;;;;;102.32;19.95;;;;;;;;;;5052571;28;20037;-66
2021/05/14 02:05:12;;;;;;;125.38;20.08;;;;;;;;;;5052594;28;20021;-66
2021/05/14 02:07:37;;;;;;;115.78;20.52;;;;;;;;;;5052811;28;20366;-66
2021/05/14 02:10:03;;;;;;;94.63;19.10;;;;;;;;;;5055757;28;20029;-66
2021/05/14 02:12:29;;;;;;;107.75;19.63;;;;;;;;;;5056831;28;20021;-66
2021/05/14 02:14:54;;;;;;;186.13;23.35;;;;;;;;;;5056787;28;20021;-66
2021/05/14 02:17:19;;;;;;;260.15;26.40;;;;;;;;;;5056653;28;20469;-66
2021/05/14 02:19:45;;;;;;;226.43;24.30;;;;;;;;;;5056522;28;20477;-66
2021/05/14 02:22:10;;;;;;;75.72;16.83;;;;;;;;;;5056628;28;20077;-66
2021/05/14 02:24:35;;;;;;;113.95;19.05;;;;;;;;;;5056224;28;20473;-66
2021/05/14 02:27:03;;;;;;;71.03;18.90;;;;;;;;;;5056412;28;20186;-66
2021/05/14 02:29:28;;;;;;;278.27;25.90;;;;;;;;;;5056392;28;20025;-66
2021/05/14 02:31:54;;;;;;;196.52;23.85;;;;;;;;;;5056159;28;20040;-66
2021/05/14 02:34:19;;;;;;;800.75;41.38;;;;;;;;;;5056191;28;20104;-66
2021/05/14 02:36:44;;;;;;;677.58;38.47;;;;;;;;;;5056425;28;20017;-66
2021/05/14 02:39:10;;;;;;;281.13;27.20;;;;;;;;;;5056107;28;20420;-66
2021/05/14 02:41:38;;;;;;;360.90;31.85;;;;;;;;;;5055784;28;20049;-66
2021/05/14 02:44:04;;;;;;;134.63;22.35;;;;;;;;;;5056105;28;20039;-66
2021/05/14 02:46:30;;;;;;;88.32;19.80;;;;;;;;;;5056127;28;20131;-66
2021/05/14 02:48:55;;;;;;;164.32;25.80;;;;;;;;;;5056041;28;20104;-66
2021/05/14 02:51:20;;;;;;;276.23;29.58;;;;;;;;;;5056010;28;20020;-66
2021/05/14 02:53:45;;;;;;;122.22;24.70;;;;;;;;;;5055919;28;20068;-66
2021/05/14 02:56:11;;;;;;;143.80;27.25;;;;;;;;;;5055935;28;20066;-66
2021/05/14 02:58:36;;;;;;;190.02;30.48;;;;;;;;;;5055918;28;20025;-66
2021/05/14 03:01:02;;;;;;;135.25;27.83;;;;;;;;;;5055870;28;20036;-66
2021/05/14 03:03:27;;;;;;;105.88;24.17;;;;;;;;;;5055720;28;20032;-66
2021/05/14 03:05:52;;;;;;;134.60;26.73;;;;;;;;;;5055762;28;20025;-66
2021/05/14 03:08:18;;;;;;;309.88;35.03;;;;;;;;;;5054871;28;20033;-66
2021/05/14 03:10:43;;;;;;;151.85;28.25;;;;;;;;;;5054848;28;20100;-66
2021/05/14 03:13:08;;;;;;;256.80;34.00;;;;;;;;;;5054931;28;20024;-66
2021/05/14 03:15:33;;;;;;;425.63;40.35;;;;;;;;;;5055115;28;20044;-66
2021/05/14 03:17:59;;;;;;;141.15;27.10;;;;;;;;;;5055518;28;20445;-66
2021/05/14 03:20:24;;;;;;;144.82;27.67;;;;;;;;;;5054268;28;20061;-65
2021/05/14 03:22:49;;;;;;;605.15;44.42;;;;;;;;;;5055364;28;20044;-66
2021/05/14 03:25:15;;;;;;;652.65;46.67;;;;;;;;;;5055189;28;20029;-66
2021/05/14 03:27:40;;;;;;;556.13;44.67;;;;;;;;;;5055224;28;20083;-66
2021/05/14 03:30:06;;;;;;;733.72;47.88;;;;;;;;;;5055217;28;20036;-66
2021/05/14 03:32:32;;;;;;;586.22;40.60;;;;;;;;;;5055041;28;20461;-66
2021/05/14 03:34:57;;;;;;;276.92;31.80;;;;;;;;;;5054895;28;20025;-66
2021/05/14 03:37:22;;;;;;;247.90;31.42;;;;;;;;;;5054948;28;20119;-66
2021/05/14 03:39:52;;;;;;;258.80;29.90;;;;;;;;;;5054946;28;20048;-66
2021/05/14 03:42:23;;;;;;;674.80;42.67;;;;;;;;;;5035211;28;20056;-66
2021/05/14 03:44:48;;;;;;;537.67;40.58;;;;;;;;;;5035057;28;20064;-66
2021/05/14 03:47:13;;;;;;;859.35;62.67;;;;;;;;;;5034993;28;20065;-66
2021/05/14 03:49:39;;;;;;;481.73;36.20;;;;;;;;;;5034808;28;20359;-66
2021/05/14 03:52:06;;;;;;;293.92;31.52;;;;;;;;;;5034976;28;20095;-66
2021/05/14 03:54:31;;;;;;;498.88;39.80;;;;;;;;;;5034750;28;20113;-66
2021/05/14 03:56:56;;;;;;;690.67;44.03;;;;;;;;;;5035029;28;20057;-65
2021/05/14 03:59:22;;;;;;;457.50;34.05;;;;;;;;;;5034633;28;20040;-66
2021/05/14 04:01:47;;;;;;;355.45;28.67;;;;;;;;;;5034875;28;20412;-66
2021/05/14 04:04:13;;;;;;;775.67;50.30;;;;;;;;;;5034634;28;20028;-66
2021/05/14 04:06:38;;;;;;;506.52;35.65;;;;;;;;;;5034732;28;20033;-66
2021/05/14 04:09:04;;;;;;;276.90;32.08;;;;;;;;;;5034760;28;20025;-66
2021/05/14 04:16:42;;;;;;;146.43;24.10;;;;;;;;;;5034366;28;20071;-66
2021/05/14 04:19:07;;;;;;;250.43;28.10;;;;;;;;;;5034366;28;20041;-65
2021/05/14 04:21:32;;;;;;;497.58;34.20;;;;;;;;;;5034738;28;20080;-66
2021/05/14 04:23:58;;;;;;;177.32;27.10;;;;;;;;;;5034128;28;20014;-66
2021/05/14 04:26:23;;;;;;;172.07;25.55;;;;;;;;;;5034526;28;20041;-66
2021/05/14 04:28:48;;;;;;;134.90;24.65;;;;;;;;;;5034232;28;20100;-66
2021/05/14 04:31:14;;;;;;;227.43;31.80;;;;;;;;;;5034198;28;20355;-66
2021/05/14 04:33:39;;;;;;;178.98;28.63;;;;;;;;;;5033179;28;20033;-66
2021/05/14 04:36:05;;;;;;;460.08;34.22;;;;;;;;;;5034039;28;20033;-66
2021/05/14 04:38:30;;;;;;;285.83;30.88;;;;;;;;;;5034037;28;20425;-66
2021/05/14 04:40:56;;;;;;;107.75;27.25;;;;;;;;;;5042869;28;20045;-66
2021/05/14 04:43:21;;;;;;;106.45;28.17;;;;;;;;;;5053765;28;20013;-66
2021/05/14 04:45:46;;;;;;;92.03;28.90;;;;;;;;;;5053891;28;20374;-66
2021/05/14 04:48:12;;;;;;;97.30;27.40;;;;;;;;;;5053863;28;20040;-66
2021/05/14 04:50:37;;;;;;;113.60;28.15;;;;;;;;;;5053758;28;20032;-66
2021/05/14 04:53:05;;;;;;;133.10;28.48;;;;;;;;;;5053873;28;20377;-66
2021/05/14 04:55:31;;;;;;;145.23;27.58;;;;;;;;;;5053532;28;20139;-66
2021/05/14 04:57:56;;;;;;;228.30;33.55;;;;;;;;;;5053702;28;20104;-66
2021/05/14 05:00:22;;;;;;;123.40;26.63;;;;;;;;;;5053541;28;20028;-66
2021/05/14 05:02:47;;;;;;;181.52;30.25;;;;;;;;;;5053365;28;20367;-66
2021/05/14 05:05:12;;;;;;;177.30;30.20;;;;;;;;;;5053299;28;20031;-66
2021/05/14 05:07:38;;;;;;;163.25;30.02;;;;;;;;;;5053494;28;20035;-66
2021/05/14 05:10:03;;;;;;;145.13;27.90;;;;;;;;;;5053040;28;20037;-66
2021/05/14 05:12:29;;;;;;;177.02;29.98;;;;;;;;;;5053401;28;20032;-66
2021/05/14 05:14:54;;;;;;;131.98;27.70;;;;;;;;;;5053330;28;20025;-66
2021/05/14 05:17:19;;;;;;;135.38;28.58;;;;;;;;;;5053077;28;20443;-66
2021/05/14 05:19:44;;;;;;;178.52;31.80;;;;;;;;;;5053314;28;20358;-66
2021/05/14 05:22:10;;;;;;;176.50;31.13;;;;;;;;;;5053332;28;20032;-66
2021/05/14 05:24:35;;;;;;;119.30;27.55;;;;;;;;;;5053256;28;20029;-66
2021/05/14 05:27:00;;;;;;;139.63;26.73;;;;;;;;;;5047486;28;20457;-66
2021/05/14 05:29:26;;;;;;;123.28;27.80;;;;;;;;;;5050867;28;20150;-66
2021/05/14 05:31:52;;;;;;;125.68;29.13;;;;;;;;;;5051151;28;20035;-66
2021/05/14 05:34:18;;;;;;;112.45;26.20;;;;;;;;;;5050649;28;20021;-66
2021/05/14 05:36:43;;;;;;;102.10;24.70;;;;;;;;;;5050531;28;20107;-66
2021/05/14 05:39:09;;;;;;;114.47;26.25;;;;;;;;;;5050608;28;20036;-66
2021/05/14 05:41:34;;;;;;;86.50;25.23;;;;;;;;;;5050965;28;20130;-66
2021/05/14 05:44:00;;;;;;;113.00;27.35;;;;;;;;;;5052654;28;20441;-66
2021/05/14 05:46:25;;;;;;;132.60;27.95;;;;;;;;;;5052323;28;20075;-66
2021/05/14 05:48:50;;;;;;;121.90;28.42;;;;;;;;;;5052479;28;20100;-66
2021/05/14 05:51:16;;;;;;;94.53;26.88;;;;;;;;;;5052985;28;20031;-66
2021/05/14 05:53:44;;;;;;;97.45;26.55;;;;;;;;;;5052590;28;20048;-66
2021/05/14 05:56:09;;;;;;;107.00;29.02;;;;;;;;;;5052831;28;20024;-66
2021/05/14 05:58:35;;;;;;;81.13;25.50;;;;;;;;;;5052862;28;20105;-66
2021/05/14 06:01:01;;;;;;;77.72;25.63;;;;;;;;;;5052895;28;20124;-66
2021/05/14 06:03:26;;;;;;;69.55;24.02;;;;;;;;;;5052876;28;20021;-66
2021/05/14 06:05:51;;;;;;;68.75;24.05;;;;;;;;;;5052705;28;20060;-66
2021/05/14 06:08:17;;;;;;;47.15;20.50;;;;;;;;;;5052758;28;20033;-66
2021/05/14 06:10:44;;;;;;;39.15;17.92;;;;;;;;;;5052746;28;20378;-66
2021/05/14 06:13:10;;;;;;;34.88;16.63;;;;;;;;;;5052750;28;20124;-66
2021/05/14 06:15:35;;;;;;;30.00;15.60;;;;;;;;;;5052632;28;20112;-66
2021/05/14 06:18:00;;;;;;;38.47;16.42;;;;;;;;;;5052728;28;20067;-66
2021/05/14 06:20:27;;;;;;;33.40;15.57;;;;;;;;;;5052859;28;20124;-67
2021/05/14 06:22:53;;;;;;;29.23;13.77;;;;;;;;;;5052670;28;20056;-67
2021/05/14 06:25:18;;;;;;;20.75;11.70;;;;;;;;;;5052841;28;20056;-66
2021/05/14 06:27:44;;;;;;;22.30;12.38;;;;;;;;;;5052607;28;20064;-67
2021/05/14 06:30:10;;;;;;;22.30;11.80;;;;;;;;;;5052536;28;20116;-64
2021/05/14 06:32:35;;;;;;;24.58;12.02;;;;;;;;;;5052225;28;20045;-65
2021/05/14 06:35:01;;;;;;;27.40;13.30;;;;;;;;;;5052015;28;20104;-64
2021/05/14 06:37:26;;;;;;;23.00;13.35;;;;;;;;;;5052472;28;20124;-64
2021/05/14 06:39:51;;;;;;;26.60;13.73;;;;;;;;;;5052187;28;20052;-64
2021/05/14 06:42:17;;;;;;;28.80;14.48;;;;;;;;;;5032781;28;20049;-64
2021/05/14 06:44:42;;;;;;;39.42;15.05;;;;;;;;;;5032495;28;20116;-64
2021/05/14 06:47:07;;;;;;;37.17;14.77;;;;;;;;;;5032440;28;20113;-64
2021/05/14 06:49:33;;;;;;;33.58;14.05;;;;;;;;;;5032367;28;20025;-64
2021/05/14 06:51:58;;;;;;;36.45;15.45;;;;;;;;;;5032205;28;20485;-64
2021/05/14 06:54:24;;;;;;;29.73;14.68;;;;;;;;;;5032200;28;20021;-64
2021/05/14 06:56:50;;;;;;;44.70;16.75;;;;;;;;;;5034717;28;20017;-66
2021/05/14 06:59:16;;;;;;;33.92;16.77;;;;;;;;;;5035466;28;20133;-66
2021/05/14 07:01:41;;;;;;;36.80;15.25;;;;;;;;;;5038657;28;20096;-66
2021/05/14 07:04:07;;;;;;;35.60;16.20;;;;;;;;;;5055780;28;20453;-66
2021/05/14 07:06:32;;;;;;;34.85;15.18;;;;;;;;;;5055166;28;20152;-66
2021/05/14 07:08:58;;;;;;;36.15;15.70;;;;;;;;;;5055931;28;20025;-66
2021/05/14 07:11:23;;;;;;;31.70;15.20;;;;;;;;;;5053609;28;20021;-67
2021/05/14 07:13:48;;;;;;;30.92;14.73;;;;;;;;;;5054951;28;20037;-66
2021/05/14 07:16:14;;;;;;;29.48;15.45;;;;;;;;;;5054935;28;20025;-66
2021/05/14 07:18:39;;;;;;;34.47;15.02;;;;;;;;;;5055504;28;20024;-66
2021/05/14 07:21:05;;;;;;;30.90;14.45;;;;;;;;;;5055270;28;20044;-66
2021/05/14 07:23:31;;;;;;;26.98;15.05;;;;;;;;;;5055516;28;20028;-66
2021/05/14 07:25:56;;;;;;;26.42;13.48;;;;;;;;;;5055284;28;20032;-66
2021/05/14 07:28:22;;;;;;;31.23;15.20;;;;;;;;;;5055361;28;20033;-66
2021/05/14 07:30:47;;;;;;;29.40;14.77;;;;;;;;;;5055234;28;20029;-66
2021/05/14 07:33:12;;;;;;;32.85;13.45;;;;;;;;;;5055325;28;20063;-66
2021/05/14 07:35:38;;;;;;;31.63;15.27;;;;;;;;;;5055127;28;20070;-66
2021/05/14 07:38:03;;;;;;;24.30;12.52;;;;;;;;;;5055254;28;20021;-66
2021/05/14 07:40:29;;;;;;;33.40;13.65;;;;;;;;;;5054896;28;20041;-66
2021/05/14 07:42:54;;;;;;;25.60;13.00;;;;;;;;;;5055151;28;20474;-66
2021/05/14 07:45:19;;;;;;;27.95;12.75;;;;;;;;;;5054141;28;20515;-65
2021/05/14 07:47:45;;;;;;;22.20;11.07;;;;;;;;;;5048086;28;20043;-66
2021/05/14 07:50:10;;;;;;;21.83;11.27;;;;;;;;;;5052839;28;20128;-65
2021/05/14 07:52:36;;;;;;;26.15;12.27;;;;;;;;;;5052489;28;20024;-66
2021/05/14 07:55:01;;;;;;;23.13;12.27;;;;;;;;;;5054231;28;20104;-66
2021/05/14 07:57:27;;;;;;;22.90;13.00;;;;;;;;;;5054040;28;20385;-66
2021/05/14 07:59:52;;;;;;;20.42;12.32;;;;;;;;;;5053830;28;20028;-66
2021/05/14 08:02:18;;;;;;;27.70;13.43;;;;;;;;;;5053976;28;20017;-66
2021/05/14 08:04:44;;;;;;;28.25;12.98;;;;;;;;;;5053912;28;20036;-66
2021/05/14 08:07:09;;;;;;;23.45;11.65;;;;;;;;;;5053540;28;20044;-65
2021/05/14 08:09:34;;;;;;;31.38;12.55;;;;;;;;;;5053516;28;20373;-65
2021/05/14 08:12:04;;;;;;;25.23;12.73;;;;;;;;;;5045136;28;20033;-66
2021/05/14 08:14:29;;;;;;;27.33;12.32;;;;;;;;;;5054257;28;20021;-66
2021/05/14 08:16:54;;;;;;;18.67;11.55;;;;;;;;;;5059260;28;20353;-66
2021/05/14 08:19:19;;;;;;;21.55;12.13;;;;;;;;;;5060568;28;20071;-66
2021/05/14 08:21:45;;;;;;;23.15;11.52;;;;;;;;;;5064720;28;20453;-66
2021/05/14 08:24:11;;;;;;;25.98;12.35;;;;;;;;;;5046486;28;20037;-65
2021/05/14 08:26:38;;;;;;;21.20;12.23;;;;;;;;;;5060119;28;20049;-66
2021/05/14 08:29:04;;;;;;;29.23;13.55;;;;;;;;;;5058540;28;20025;-66
2021/05/14 08:31:29;;;;;;;28.33;12.73;;;;;;;;;;5055239;28;20028;-66
2021/05/14 08:33:54;;;;;;;27.08;12.48;;;;;;;;;;5057468;28;20474;-66
2021/05/14 08:36:20;;;;;;;21.60;11.60;;;;;;;;;;5053741;28;20028;-66
2021/05/14 08:38:45;;;;;;;20.70;9.85;;;;;;;;;;5049332;28;20040;-65
2021/05/14 08:41:11;;;;;;;22.90;10.95;;;;;;;;;;5050266;28;20053;-66
2021/05/14 08:43:36;;;;;;;24.50;12.00;;;;;;;;;;5044112;28;20024;-66
2021/05/14 08:46:02;;;;;;;15.45;9.50;;;;;;;;;;5030355;28;20052;-66
2021/05/14 08:48:30;;;;;;;17.45;10.43;;;;;;;;;;5042011;28;20036;-66
2021/05/14 08:50:55;;;;;;;18.33;10.98;;;;;;;;;;5042690;28;20470;-66
2021/05/14 08:53:20;;;;;;;22.85;10.90;;;;;;;;;;5033105;28;20083;-65
2021/05/14 08:55:46;;;;;;;21.55;10.07;;;;;;;;;;5037102;28;20067;-66
2021/05/14 08:58:11;;;;;;;26.40;11.65;;;;;;;;;;5042176;28;20048;-66
2021/05/14 09:00:37;;;;;;;20.13;10.77;;;;;;;;;;5030844;28;20760;-66
2021/05/14 09:03:07;;;;;;;22.25;12.40;;;;;;;;;;5043581;28;20075;-65
2021/05/14 09:05:33;;;;;;;21.38;11.02;;;;;;;;;;5043268;28;20389;-66
2021/05/14 09:07:59;;;;;;;19.63;10.55;;;;;;;;;;5046751;28;20598;-66
2021/05/14 09:10:25;;;;;;;22.70;10.63;;;;;;;;;;5042948;28;20819;-66
2021/05/14 09:12:51;;;;;;;25.17;11.88;;;;;;;;;;5042925;28;20382;-65
2021/05/14 09:15:21;;;;;;;19.73;9.65;;;;;;;;;;5041641;28;20055;-66
2021/05/14 09:18:05;;;;;;;22.33;9.93;;;;;;;;;;5043637;28;20067;-66
2021/05/14 09:20:34;;;;;;;19.30;10.57;;;;;;;;;;5032526;28;20028;-66
2021/05/14 09:22:59;;;;;;;17.38;10.10;;;;;;;;;;5043701;28;20883;-66
2021/05/14 09:25:25;;;;;;;16.02;9.75;;;;;;;;;;5042020;28;20025;-66
2021/05/14 09:27:50;;;;;;;17.52;9.63;;;;;;;;;;5049187;28;20037;-66
2021/05/14 09:30:15;;;;;;;20.95;9.48;;;;;;;;;;5048955;28;20036;-66
2021/05/14 09:32:41;;;;;;;16.38;9.32;;;;;;;;;;5043569;28;20120;-66
2021/05/14 09:35:07;;;;;;;18.42;8.38;;;;;;;;;;5039756;28;20017;-66
2021/05/14 09:37:32;;;;;;;17.10;8.38;;;;;;;;;;5043613;28;20037;-66
2021/05/14 09:40:17;;;;;;;14.32;8.00;;;;;;;;;;5045978;28;20055;-66
2021/05/14 09:42:43;;;;;;;16.00;8.27;;;;;;;;;;5045114;28;20436;-66
2021/05/14 09:45:14;;;;;;;17.45;7.85;;;;;;;;;;5054685;28;20032;-66
2021/05/14 09:47:40;;;;;;;12.85;8.40;;;;;;;;;;5061153;28;20540;-66
2021/05/14 09:50:32;;;;;;;14.90;8.63;;;;;;;;;;5052556;28;20134;-66
2021/05/14 09:53:09;;;;;;;11.35;6.80;;;;;;;;;;5054450;28;20040;-66
2021/05/14 09:55:36;;;;;;;15.00;7.75;;;;;;;;;;5045191;28;20040;-66
2021/05/14 09:58:13;;;;;;;21.17;7.70;;;;;;;;;;5061995;28;20056;-66
2021/05/14 10:00:39;;;;;;;15.20;7.60;;;;;;;;;;5048257;28;20033;-66
2021/05/14 10:03:05;;;;;;;18.40;8.30;;;;;;;;;;5057466;28;20058;-66
2021/05/14 10:05:31;;;;;;;16.02;8.48;;;;;;;;;;5048850;28;20075;-66
2021/05/14 10:08:01;;;;;;;16.17;8.55;;;;;;;;;;5062471;28;20152;-66
2021/05/14 10:10:26;;;;;;;16.02;8.50;;;;;;;;;;5047689;28;20082;-66
2021/05/14 10:12:52;;;;;;;18.90;9.00;;;;;;;;;;5045304;28;20520;-66
2021/05/14 10:15:17;;;;;;;20.15;8.50;;;;;;;;;;5058959;28;20560;-66
2021/05/14 10:17:46;;;;;;;18.50;8.02;;;;;;;;;;5049088;28;20037;-66
2021/05/14 10:20:13;;;;;;;18.33;9.38;;;;;;;;;;5059954;28;20068;-66
2021/05/14 10:22:39;;;;;;;15.45;7.85;;;;;;;;;;5054157;28;20467;-66
2021/05/14 10:25:06;;;;;;;14.32;7.45;;;;;;;;;;5053320;28;20033;-66
2021/05/14 10:27:38;;;;;;;13.38;6.80;;;;;;;;;;5050283;28;20947;-66
2021/05/14 10:30:04;;;;;;;14.60;7.38;;;;;;;;;;5034251;28;20364;-66
2021/05/14 10:32:44;;;;;;;13.00;6.40;;;;;;;;;;5061057;28;20036;-66
2021/05/14 10:35:14;;;;;;;12.63;6.53;;;;;;;;;;5062192;28;20038;-66
2021/05/14 10:37:46;;;;;;;16.58;7.20;;;;;;;;;;5051887;28;20048;-66
2021/05/14 10:40:33;;;;;;;16.13;8.27;;;;;;;;;;5051257;28;20049;-66
2021/05/14 10:43:00;;;;;;;15.80;6.97;;;;;;;;;;5059689;28;20067;-66
2021/05/14 10:45:35;;;;;;;13.98;7.72;;;;;;;;;;5053207;28;20036;-66
2021/05/14 10:48:01;;;;;;;12.10;6.63;;;;;;;;;;5034830;28;20044;-66
2021/05/14 10:50:32;;;;;;;12.55;6.68;;;;;;;;;;5056030;28;20385;-66
2021/05/14 10:53:16;;;;;;;14.52;7.55;;;;;;;;;;5055886;28;20480;-66
2021/05/14 10:55:41;;;;;;;12.20;6.57;;;;;;;;;;5064728;28;20078;-66
2021/05/14 10:58:07;;;;;;;14.50;6.82;;;;;;;;;;5047587;28;20524;-66
2021/05/14 11:00:34;;;;;;;12.07;6.20;;;;;;;;;;5040750;28;20039;-66
2021/05/14 11:03:13;;;;;;;11.43;6.05;;;;;;;;;;5052096;28;20032;-66
2021/05/14 11:05:43;;;;;;;10.13;5.30;;;;;;;;;;5058894;28;20032;-66
2021/05/14 11:08:09;;;;;;;13.80;6.68;;;;;;;;;;5047865;28;20219;-66
2021/05/14 11:10:35;;;;;;;15.05;6.55;;;;;;;;;;5044887;28;20248;-66
2021/05/14 11:13:34;;;;;;;13.15;6.80;;;;;;;;;;5052906;28;20509;-65
2021/05/14 11:16:19;;;;;;;22.25;6.85;;;;;;;;;;5039059;28;20049;-66
2021/05/14 11:18:51;;;;;;;12.50;5.85;;;;;;;;;;5046647;28;20029;-66
2021/05/14 11:21:20;;;;;;;10.77;5.80;;;;;;;;;;5048993;28;20064;-66
2021/05/14 11:23:45;;;;;;;13.65;5.72;;;;;;;;;;5046001;28;20041;-67
2021/05/14 11:26:17;;;;;;;13.00;5.70;;;;;;;;;;5058756;28;20032;-67
2021/05/14 11:28:44;;;;;;;13.55;5.65;;;;;;;;;;5045552;28;20056;-66
2021/05/14 11:31:28;;;;;;;8.05;4.55;;;;;;;;;;5044913;28;20752;-67
2021/05/14 11:33:54;;;;;;;12.85;5.57;;;;;;;;;;5044537;28;20033;-65
2021/05/14 11:36:22;;;;;;;9.63;6.03;;;;;;;;;;5044766;28;20347;-67
2021/05/14 11:38:56;;;;;;;11.10;6.55;;;;;;;;;;5042907;28;20029;-67
2021/05/14 11:41:28;;;;;;;13.68;5.13;;;;;;;;;;5040755;28;21361;-66
2021/05/14 11:43:55;;;;;;;13.80;5.97;;;;;;;;;;5036829;28;20067;-67
2021/05/14 11:46:22;;;;;;;15.15;5.95;;;;;;;;;;5049236;28;20040;-67
2021/05/14 11:48:48;;;;;;;12.00;6.30;;;;;;;;;;5053525;28;20020;-67
2021/05/14 11:51:14;;;;;;;13.82;6.25;;;;;;;;;;5056621;28;20066;-66
2021/05/14 11:53:39;;;;;;;10.90;5.72;;;;;;;;;;5045884;28;20398;-66
2021/05/14 11:56:05;;;;;;;14.18;5.57;;;;;;;;;;5047141;28;20017;-67
2021/05/14 11:58:30;;;;;;;9.75;4.38;;;;;;;;;;5055666;28;20055;-67
2021/05/14 12:00:57;;;;;;;8.82;4.68;;;;;;;;;;5046334;28;20438;-66
2021/05/14 12:03:23;;;;;;;12.27;4.97;;;;;;;;;;5057570;28;20033;-66
2021/05/14 12:05:49;;;;;;;13.90;4.88;;;;;;;;;;5046404;28;20071;-66
2021/05/14 12:08:17;;;;;;;9.10;4.00;;;;;;;;;;5058531;28;20124;-66
2021/05/14 12:11:01;;;;;;;9.68;4.15;;;;;;;;;;5049688;28;20025;-66
2021/05/14 12:13:30;;;;;;;12.18;4.78;;;;;;;;;;5055028;28;20288;-66
2021/05/14 12:16:05;;;;;;;9.70;4.22;;;;;;;;;;5048289;28;20024;-67
2021/05/14 12:18:32;;;;;;;8.70;3.90;;;;;;;;;;5048958;28;20382;-66
2021/05/14 12:21:00;;;;;;;10.57;4.22;;;;;;;;;;5048134;28;20025;-67
2021/05/14 12:23:26;;;;;;;13.20;5.32;;;;;;;;;;5063437;28;20040;-67
2021/05/14 12:26:00;;;;;;;11.95;4.20;;;;;;;;;;5050075;28;20036;-67
2021/05/14 12:28:26;;;;;;;11.25;3.63;;;;;;;;;;5059713;28;20029;-67
2021/05/14 12:30:52;;;;;;;9.45;3.80;;;;;;;;;;5057893;28;20125;-67
2021/05/14 12:33:17;;;;;;;12.55;4.45;;;;;;;;;;5053024;28;20425;-66
2021/05/14 12:35:53;;;;;;;11.40;4.80;;;;;;;;;;5063266;28;20025;-66
2021/05/14 12:38:19;;;;;;;10.68;4.07;;;;;;;;;;5047062;28;20032;-67
2021/05/14 12:40:46;;;;;;;10.48;4.93;;;;;;;;;;5048877;28;20049;-67
2021/05/14 12:43:12;;;;;;;9.20;3.85;;;;;;;;;;5060446;28;20128;-66
2021/05/14 12:45:38;;;;;;;11.10;4.32;;;;;;;;;;5050567;28;20104;-67
2021/05/14 12:48:04;;;;;;;10.68;4.75;;;;;;;;;;5047235;28;20111;-67
2021/05/14 12:50:30;;;;;;;8.82;3.92;;;;;;;;;;5054663;28;20040;-67
2021/05/14 12:52:56;;;;;;;12.32;4.20;;;;;;;;;;5055386;28;20469;-66
2021/05/14 12:55:21;;;;;;;7.28;3.65;;;;;;;;;;5060732;28;20028;-67
2021/05/14 12:57:54;;;;;;;8.82;4.10;;;;;;;;;;5050832;28;20033;-66
2021/05/14 13:00:21;;;;;;;11.07;3.90;;;;;;;;;;5057711;28;20078;-66
2021/05/14 13:03:00;;;;;;;8.93;4.72;;;;;;;;;;5046844;28;20465;-66
2021/05/14 13:05:34;;;;;;;11.20;4.80;;;;;;;;;;5057868;28;20181;-66
2021/05/14 13:08:00;;;;;;;11.25;4.72;;;;;;;;;;5049742;28;20048;-66
2021/05/14 13:10:34;;;;;;;11.15;5.40;;;;;;;;;;5059515;28;20044;-66
2021/05/14 13:12:59;;;;;;;11.38;5.20;;;;;;;;;;5058785;28;20031;-66
2021/05/14 13:15:25;;;;;;;11.57;5.47;;;;;;;;;;5051743;28;20028;-66
2021/05/14 13:17:50;;;;;;;7.75;4.78;;;;;;;;;;5063026;28;20045;-66
2021/05/14 13:20:15;;;;;;;11.82;5.70;;;;;;;;;;5052645;28;20016;-66
2021/05/14 13:22:41;;;;;;;12.25;5.10;;;;;;;;;;5057660;28;20035;-66
2021/05/14 13:25:06;;;;;;;16.02;5.00;;;;;;;;;;5055069;28;20036;-66
2021/05/14 13:27:32;;;;;;;10.63;4.82;;;;;;;;;;5046356;28;20110;-66
2021/05/14 13:29:57;;;;;;;9.93;4.97;;;;;;;;;;5063564;28;20036;-66
2021/05/14 13:32:22;;;;;;;9.50;3.70;;;;;;;;;;5053163;28;20824;-66
2021/05/14 13:34:47;;;;;;;15.02;5.10;;;;;;;;;;5056087;28;20048;-66
2021/05/14 13:37:13;;;;;;;11.75;4.22;;;;;;;;;;5059790;28;20031;-66
2021/05/14 13:39:38;;;;;;;10.38;4.50;;;;;;;;;;5064931;28;20119;-66
2021/05/14 13:42:03;;;;;;;26.42;4.85;;;;;;;;;;5050309;28;20468;-66
2021/05/14 13:44:29;;;;;;;7.88;4.82;;;;;;;;;;5058280;28;20028;-67
2021/05/14 13:46:54;;;;;;;13.38;4.93;;;;;;;;;;5056758;28;20076;-66
2021/05/14 13:49:19;;;;;;;8.13;4.60;;;;;;;;;;5051838;28;20457;-65
2021/05/14 13:51:45;;;;;;;9.98;4.90;;;;;;;;;;5062698;28;20425;-66
2021/05/14 13:54:10;;;;;;;8.18;4.57;;;;;;;;;;5051476;28;20036;-66
2021/05/14 13:56:35;;;;;;;8.95;4.00;;;;;;;;;;5062388;28;20024;-65
2021/05/14 13:59:01;;;;;;;12.77;4.40;;;;;;;;;;5065355;28;20075;-66
2021/05/14 14:01:27;;;;;;;11.13;4.47;;;;;;;;;;5049511;28;20448;-66
2021/05/14 14:03:54;;;;;;;12.35;4.65;;;;;;;;;;5046987;28;20021;-66
2021/05/14 14:06:19;;;;;;;6.60;3.75;;;;;;;;;;5062986;28;20055;-66
2021/05/14 14:08:46;;;;;;;9.63;4.57;;;;;;;;;;5058954;28;20117;-66
2021/05/14 14:11:11;;;;;;;6.72;4.00;;;;;;;;;;5056411;28;20024;-66
2021/05/14 14:13:38;;;;;;;10.60;5.47;;;;;;;;;;5051433;28;20029;-66
2021/05/14 14:16:03;;;;;;;7.05;3.75;;;;;;;;;;5051798;28;20063;-66
2021/05/14 14:18:28;;;;;;;8.43;5.03;;;;;;;;;;5053455;28;20024;-66
2021/05/14 14:20:54;;;;;;;8.77;4.25;;;;;;;;;;5052270;28;20110;-66